Time;durP1;ratioP1;P1;durP2;ratioP2;P2;SDS_P1;SDS_P2;PMS_P1;PMS_P2;Temp;Humidity;BMP_temperature;BMP_pressure;BME280_temperature;BME280_humidity;BME280_pressure;Samples;Min_cycle;Max_cycle;Signal;HPM_P1;HPM_P2
2020/12/27 00:02:25;;;;;;;0.57;0.50;;;23.00;30.40;;;;;;5007206;28;20046;-49
2020/12/27 00:04:50;;;;;;;0.77;0.57;;;23.00;30.40;;;;;;5006511;28;20029;-44
2020/12/27 00:07:16;;;;;;;1.00;0.60;;;23.00;30.40;;;;;;5007956;28;20026;-48
2020/12/27 00:09:43;;;;;;;0.82;0.50;;;23.00;30.40;;;;;;5009848;28;20444;-46
2020/12/27 00:12:10;;;;;;;1.10;0.60;;;23.00;30.40;;;;;;5007614;28;20030;-51
2020/12/27 00:14:36;;;;;;;0.70;0.47;;;23.00;30.40;;;;;;5008421;28;20026;-48
2020/12/27 00:17:12;;;;;;;0.90;0.60;;;23.00;30.50;;;;;;4999227;28;20022;-50
2020/12/27 00:19:39;;;;;;;0.50;0.40;;;22.90;30.40;;;;;;5016928;28;20403;-47
2020/12/27 00:22:05;;;;;;;1.17;0.60;;;22.90;30.40;;;;;;5024453;28;20039;-46
2020/12/27 00:24:32;;;;;;;0.68;0.40;;;22.90;30.40;;;;;;5021207;28;20400;-47
2020/12/27 00:26:58;;;;;;;0.70;0.40;;;22.90;30.40;;;;;;5031426;28;20029;-51
2020/12/27 00:29:24;;;;;;;0.85;0.40;;;22.90;30.40;;;;;;5024833;28;20046;-46
2020/12/27 00:31:53;;;;;;;0.45;0.40;;;22.90;30.40;;;;;;5021795;28;20034;-45
2020/12/27 00:34:19;;;;;;;0.52;0.40;;;22.80;30.30;;;;;;5020239;28;20026;-49
2020/12/27 00:36:46;;;;;;;0.50;0.50;;;22.80;30.30;;;;;;5022736;28;20057;-48
2020/12/27 00:39:12;;;;;;;1.05;0.40;;;22.80;30.30;;;;;;5026816;28;20120;-50
2020/12/27 00:41:38;;;;;;;0.85;0.40;;;22.80;30.30;;;;;;5023119;28;20037;-49
2020/12/27 00:44:05;;;;;;;0.77;0.50;;;22.80;30.40;;;;;;5022702;28;20029;-50
2020/12/27 00:46:31;;;;;;;1.30;0.40;;;22.80;30.30;;;;;;5026738;28;20041;-48
2020/12/27 00:48:57;;;;;;;0.50;0.30;;;22.70;30.30;;;;;;5001314;28;20344;-49
2020/12/27 00:51:24;;;;;;;0.75;0.50;;;22.70;30.30;;;;;;5005613;28;20211;-47
2020/12/27 00:53:50;;;;;;;0.77;0.60;;;22.70;30.20;;;;;;5024116;28;20029;-46
2020/12/27 00:56:16;;;;;;;0.70;0.50;;;22.70;30.30;;;;;;5003853;28;20030;-46
2020/12/27 00:58:55;;;;;;;0.60;0.50;;;22.70;30.20;;;;;;5005970;28;20380;-46
2020/12/27 01:01:21;;;;;;;0.55;0.35;;;22.70;30.20;;;;;;5005151;28;20163;-48
2020/12/27 01:03:46;;;;;;;1.00;0.80;;;22.60;30.20;;;;;;5024263;28;20032;-44
2020/12/27 01:06:22;;;;;;;0.68;0.40;;;22.60;30.10;;;;;;5018136;28;20038;-46
2020/12/27 01:08:48;;;;;;;0.63;0.38;;;22.60;30.10;;;;;;5006456;28;20018;-48
2020/12/27 01:11:14;;;;;;;0.80;0.50;;;22.60;30.10;;;;;;5028374;28;20057;-51
2020/12/27 01:13:40;;;;;;;0.47;0.30;;;22.60;30.10;;;;;;5008221;28;20456;-49
2020/12/27 01:16:13;;;;;;;0.70;0.40;;;22.60;30.20;;;;;;5004439;28;20040;-45
2020/12/27 01:18:42;;;;;;;0.40;0.30;;;22.60;30.20;;;;;;5012170;28;20053;-51
2020/12/27 01:21:08;;;;;;;0.75;0.55;;;22.50;30.10;;;;;;4991228;28;20041;-50
2020/12/27 01:23:35;;;;;;;0.52;0.40;;;22.50;30.10;;;;;;4988318;28;20469;-48
2020/12/27 01:26:00;;;;;;;0.45;0.43;;;22.50;30.10;;;;;;5011800;28;20033;-44
2020/12/27 01:28:27;;;;;;;0.68;0.57;;;22.50;30.10;;;;;;5003907;28;20446;-48
2020/12/27 01:31:00;;;;;;;0.50;0.40;;;22.50;30.10;;;;;;4982592;28;20030;-45
2020/12/27 01:33:34;;;;;;;0.52;0.30;;;22.50;30.20;;;;;;4979806;28;20041;-49
2020/12/27 01:36:00;;;;;;;0.45;0.40;;;22.40;30.00;;;;;;5006636;28;20354;-51
2020/12/27 01:38:27;;;;;;;1.00;0.30;;;22.40;30.10;;;;;;4977809;28;20472;-47
2020/12/27 01:41:03;;;;;;;0.50;0.50;;;22.40;30.10;;;;;;4982856;28;20023;-50
2020/12/27 01:43:32;;;;;;;0.60;0.40;;;22.40;30.00;;;;;;4988847;28;20049;-46
2020/12/27 01:46:01;;;;;;;0.65;0.47;;;22.40;30.10;;;;;;4984219;28;20389;-49
2020/12/27 01:48:27;;;;;;;0.35;0.30;;;22.40;30.10;;;;;;4986284;28;20038;-49
2020/12/27 01:50:59;;;;;;;0.25;0.25;;;22.40;30.10;;;;;;4982718;28;20584;-46
2020/12/27 01:53:35;;;;;;;0.65;0.45;;;22.40;30.00;;;;;;4984852;28;20026;-45
2020/12/27 01:56:04;;;;;;;0.50;0.40;;;22.40;30.10;;;;;;4986696;28;20030;-47
2020/12/27 01:58:39;;;;;;;0.80;0.50;;;22.40;30.10;;;;;;4987224;28;20418;-45
2020/12/27 02:01:10;;;;;;;0.50;0.40;;;22.30;30.00;;;;;;4991675;28;20609;-47
2020/12/27 02:03:49;;;;;;;0.50;0.40;;;22.30;30.00;;;;;;4982151;28;20054;-45
2020/12/27 02:06:32;;;;;;;0.93;0.50;;;22.30;30.00;;;;;;4986407;28;20065;-45
2020/12/27 02:09:08;;;;;;;0.60;0.47;;;22.30;30.00;;;;;;4986329;28;20041;-46
2020/12/27 02:11:42;;;;;;;0.32;0.32;;;22.30;30.00;;;;;;4988465;28;20065;-46
2020/12/27 02:14:11;;;;;;;0.30;0.30;;;22.30;30.00;;;;;;4984363;28;20129;-53
2020/12/27 02:16:39;;;;;;;0.85;0.50;;;22.30;30.00;;;;;;4982122;28;20026;-47
2020/12/27 02:19:23;;;;;;;0.45;0.40;;;22.20;30.00;;;;;;5025891;28;20076;-49
2020/12/27 02:21:53;;;;;;;0.57;0.50;;;22.20;30.00;;;;;;5015065;28;20056;-50
2020/12/27 02:24:37;;;;;;;0.40;0.40;;;22.20;30.00;;;;;;5026955;28;20052;-46
2020/12/27 02:27:05;;;;;;;0.63;0.50;;;22.20;30.00;;;;;;5025298;28;20025;-48
2020/12/27 02:29:34;;;;;;;0.50;0.50;;;22.20;30.00;;;;;;5022968;28;20033;-49
2020/12/27 02:32:03;;;;;;;0.50;0.50;;;22.20;30.10;;;;;;5008978;28;20104;-46
2020/12/27 02:34:30;;;;;;;0.95;0.50;;;22.20;30.10;;;;;;5014723;28;20029;-48
2020/12/27 02:36:55;;;;;;;0.93;0.50;;;22.20;30.10;;;;;;5007517;28;20044;-47
2020/12/27 02:39:30;;;;;;;0.95;0.50;;;22.20;30.10;;;;;;5012196;28;20029;-49
2020/12/27 02:41:56;;;;;;;0.75;0.50;;;22.10;30.00;;;;;;5008450;28;20045;-46
2020/12/27 02:44:26;;;;;;;0.60;0.40;;;22.10;30.00;;;;;;5027533;28;20048;-46
2020/12/27 02:47:04;;;;;;;0.45;0.40;;;22.10;30.00;;;;;;5003361;28;20029;-46
2020/12/27 02:49:48;;;;;;;0.85;0.57;;;22.10;30.00;;;;;;5028222;28;20052;-47
2020/12/27 02:52:15;;;;;;;0.63;0.50;;;22.10;30.00;;;;;;5008533;28;20032;-46
2020/12/27 02:54:41;;;;;;;0.40;0.40;;;22.10;30.00;;;;;;5014486;28;20029;-48
2020/12/27 02:57:10;;;;;;;0.57;0.38;;;22.10;30.00;;;;;;5016697;28;20033;-47
2020/12/27 02:59:36;;;;;;;0.80;0.50;;;22.10;30.00;;;;;;5014691;28;20479;-46
2020/12/27 03:02:22;;;;;;;0.90;0.55;;;22.10;30.00;;;;;;5025400;28;20049;-46
2020/12/27 03:05:00;;;;;;;0.35;0.35;;;22.00;30.00;;;;;;5007649;28;20448;-49
2020/12/27 03:07:26;;;;;;;0.85;0.50;;;22.00;30.00;;;;;;5001727;28;20075;-46
2020/12/27 03:10:02;;;;;;;0.70;0.50;;;22.00;30.00;;;;;;5013365;28;20102;-46
2020/12/27 03:12:42;;;;;;;0.70;0.50;;;22.00;30.00;;;;;;5033539;28;20064;-48
2020/12/27 03:15:09;;;;;;;0.90;0.45;;;22.00;30.00;;;;;;5010771;28;20334;-48
2020/12/27 03:17:53;;;;;;;0.60;0.50;;;22.00;30.00;;;;;;5029122;28;20100;-46
2020/12/27 03:20:58;;;;;;;0.40;0.38;;;22.00;30.00;;;;;;4935780;29;20487;-46
2020/12/27 03:23:26;;;;;;;0.80;0.45;;;22.00;30.00;;;;;;4923731;29;20130;-51
2020/12/27 03:25:59;;;;;;;0.80;0.50;;;21.90;30.00;;;;;;4966920;28;20045;-46
2020/12/27 03:28:25;;;;;;;1.30;0.52;;;21.90;30.00;;;;;;5013032;28;20449;-51
2020/12/27 03:30:57;;;;;;;0.60;0.32;;;21.90;30.00;;;;;;4994749;28;20408;-49
2020/12/27 03:33:26;;;;;;;0.50;0.40;;;21.90;30.00;;;;;;4994044;28;20036;-44
2020/12/27 03:35:58;;;;;;;0.90;0.40;;;21.90;30.00;;;;;;4981121;28;20022;-47
2020/12/27 03:38:29;;;;;;;0.63;0.40;;;21.90;30.00;;;;;;4992348;28;20026;-47
2020/12/27 03:41:11;;;;;;;0.70;0.50;;;21.90;30.00;;;;;;4991156;28;20038;-47
2020/12/27 03:43:45;;;;;;;0.65;0.40;;;21.90;30.00;;;;;;4996362;28;20539;-48
2020/12/27 03:46:11;;;;;;;0.70;0.40;;;21.90;30.10;;;;;;4991216;28;20100;-45
2020/12/27 03:49:09;;;;;;;0.93;0.55;;;21.80;30.00;;;;;;5012375;28;20030;-48
2020/12/27 03:51:45;;;;;;;0.65;0.50;;;21.80;30.00;;;;;;4994751;28;20049;-46
2020/12/27 03:54:14;;;;;;;0.45;0.30;;;21.80;30.00;;;;;;4994409;28;20026;-45
2020/12/27 03:57:10;;;;;;;0.32;0.32;;;21.80;30.10;;;;;;4967728;28;20039;-48
2020/12/27 03:59:57;;;;;;;0.65;0.60;;;21.80;30.00;;;;;;4991651;28;20429;-45
2020/12/27 04:02:41;;;;;;;0.40;0.40;;;21.80;30.00;;;;;;5009592;28;20432;-47
2020/12/27 04:05:08;;;;;;;1.02;0.50;;;21.80;30.10;;;;;;4996617;28;20299;-50
2020/12/27 04:07:33;;;;;;;0.73;0.43;;;21.80;30.10;;;;;;4988195;28;20365;-46
2020/12/27 04:09:59;;;;;;;0.50;0.50;;;21.80;30.10;;;;;;4995512;28;20038;-43
2020/12/27 04:12:26;;;;;;;0.70;0.50;;;21.70;30.00;;;;;;4994848;28;20025;-46
2020/12/27 04:14:53;;;;;;;0.60;0.40;;;21.80;30.00;;;;;;4995162;28;20038;-47
2020/12/27 04:17:30;;;;;;;0.60;0.40;;;21.80;30.00;;;;;;4996035;28;20026;-48
2020/12/27 04:19:56;;;;;;;0.68;0.47;;;21.70;30.00;;;;;;5016799;28;20458;-46
2020/12/27 04:22:22;;;;;;;0.55;0.50;;;21.70;30.00;;;;;;5010829;28;20364;-47
2020/12/27 04:24:57;;;;;;;0.68;0.60;;;21.70;30.00;;;;;;5013775;28;20029;-44
2020/12/27 04:27:23;;;;;;;0.40;0.40;;;21.70;30.00;;;;;;5014825;28;20144;-46
2020/12/27 04:29:49;;;;;;;0.65;0.50;;;21.70;30.10;;;;;;5015405;28;20065;-49
2020/12/27 04:32:25;;;;;;;0.40;0.30;;;21.70;30.00;;;;;;5013838;28;20360;-46
2020/12/27 04:35:05;;;;;;;0.82;0.43;;;21.70;30.00;;;;;;5013876;28;20037;-44
2020/12/27 04:37:34;;;;;;;0.47;0.45;;;21.70;30.00;;;;;;4997429;28;20357;-45
2020/12/27 04:40:11;;;;;;;1.25;0.50;;;21.70;30.00;;;;;;5003707;28;20356;-47
2020/12/27 04:42:42;;;;;;;0.40;0.30;;;21.60;30.00;;;;;;5011746;28;20068;-45
2020/12/27 04:45:10;;;;;;;0.73;0.40;;;21.60;30.00;;;;;;5006973;28;20038;-45
2020/12/27 04:47:54;;;;;;;;;;;21.60;30.10;;;;;;5029236;28;20119;-46
2020/12/27 04:50:39;;;;;;;1.27;0.40;;;21.60;30.00;;;;;;5038363;28;20299;-49
2020/12/27 04:53:05;;;;;;;0.40;0.40;;;21.60;30.10;;;;;;5010305;28;20368;-47
2020/12/27 04:55:34;;;;;;;0.75;0.47;;;21.50;30.00;;;;;;5018427;28;20108;-46
2020/12/27 04:58:23;;;;;;;0.60;0.38;;;21.60;30.10;;;;;;5032436;28;20038;-46
2020/12/27 05:01:10;;;;;;;0.77;0.40;;;21.50;30.10;;;;;;5020183;28;20127;-47
2020/12/27 05:03:56;;;;;;;0.55;0.35;;;21.50;30.10;;;;;;5031163;28;20041;-47
2020/12/27 05:06:25;;;;;;;0.65;0.35;;;21.50;30.20;;;;;;5018502;28;20029;-44
2020/12/27 05:08:51;;;;;;;0.30;0.30;;;21.50;30.10;;;;;;5015782;28;20032;-49
2020/12/27 05:11:22;;;;;;;0.40;0.38;;;21.50;30.10;;;;;;5015815;28;20053;-43
2020/12/27 05:13:54;;;;;;;0.43;0.43;;;21.50;30.20;;;;;;5012309;28;20357;-46
2020/12/27 05:16:32;;;;;;;0.30;0.20;;;21.50;30.20;;;;;;5000772;28;20088;-50
2020/12/27 05:18:59;;;;;;;0.40;0.28;;;21.50;30.20;;;;;;5013859;28;20053;-46
2020/12/27 05:21:37;;;;;;;0.73;0.40;;;21.50;30.30;;;;;;5019333;28;20041;-48
2020/12/27 05:24:05;;;;;;;0.30;0.30;;;21.40;30.20;;;;;;5015893;28;20029;-45
2020/12/27 05:26:46;;;;;;;0.50;0.20;;;21.40;30.20;;;;;;5016922;28;20033;-47
2020/12/27 05:29:32;;;;;;;0.43;0.40;;;21.40;30.30;;;;;;5018534;28;20029;-50
2020/12/27 05:32:06;;;;;;;0.30;0.20;;;21.40;30.30;;;;;;5015804;28;20534;-50
2020/12/27 05:34:51;;;;;;;0.20;0.20;;;21.40;30.30;;;;;;5031474;28;20047;-50
2020/12/27 05:37:41;;;;;;;0.30;0.22;;;21.40;30.30;;;;;;5029564;28;20029;-49
2020/12/27 05:40:38;;;;;;;0.20;0.20;;;21.40;30.30;;;;;;5033102;28;20041;-46
2020/12/27 05:43:14;;;;;;;1.05;0.30;;;21.40;30.40;;;;;;5016286;28;20060;-47
2020/12/27 05:45:44;;;;;;;0.30;0.30;;;21.40;30.40;;;;;;5016677;28;20481;-49
2020/12/27 05:48:11;;;;;;;0.40;0.35;;;21.40;30.50;;;;;;4997056;28;20021;-46
2020/12/27 05:50:42;;;;;;;0.20;0.20;;;21.40;30.50;;;;;;5035238;28;20021;-50
2020/12/27 05:53:22;;;;;;;0.35;0.20;;;21.40;30.50;;;;;;5013848;28;20116;-48
2020/12/27 05:55:55;;;;;;;0.38;0.30;;;21.30;30.40;;;;;;5021572;28;20040;-46
2020/12/27 05:58:26;;;;;;;0.40;0.30;;;21.30;30.50;;;;;;5014498;28;20033;-48
2020/12/27 06:01:06;;;;;;;0.30;0.30;;;21.30;30.50;;;;;;5018457;28;20025;-46
2020/12/27 06:03:55;;;;;;;0.35;0.20;;;21.30;30.50;;;;;;5014303;28;20049;-45
2020/12/27 06:07:03;;;;;;;0.28;0.20;;;21.30;30.60;;;;;;5013285;28;20122;-47
2020/12/27 06:09:45;;;;;;;0.25;0.20;;;21.30;30.60;;;;;;5011812;28;20095;-47
2020/12/27 06:12:13;;;;;;;0.17;0.17;;;21.30;30.70;;;;;;5018656;28;20128;-45
2020/12/27 06:14:44;;;;;;;0.28;0.20;;;21.30;30.70;;;;;;5029555;28;20464;-46
2020/12/27 06:17:36;;;;;;;0.22;0.10;;;21.20;30.70;;;;;;5034984;28;20049;-47
2020/12/27 06:20:21;;;;;;;0.47;0.30;;;21.30;30.90;;;;;;4998872;28;20331;-45
2020/12/27 06:22:50;;;;;;;0.45;0.17;;;21.20;30.80;;;;;;5004478;28;20038;-48
2020/12/27 06:25:24;;;;;;;0.35;0.10;;;21.20;30.80;;;;;;5012025;28;20040;-44
2020/12/27 06:27:54;;;;;;;0.20;0.20;;;21.20;30.80;;;;;;5012661;28;20050;-45
2020/12/27 06:30:33;;;;;;;0.38;0.20;;;21.20;30.90;;;;;;5016736;28;20106;-48
2020/12/27 06:33:39;;;;;;;0.25;0.10;;;21.20;30.90;;;;;;5017690;28;20124;-47
2020/12/27 06:36:31;;;;;;;0.20;0.10;;;21.20;30.90;;;;;;5017163;28;20029;-46
2020/12/27 06:38:57;;;;;;;1.38;0.20;;;21.20;31.00;;;;;;5012644;28;20460;-45
2020/12/27 06:41:23;;;;;;;0.30;0.10;;;21.20;31.00;;;;;;5015181;28;20033;-44
2020/12/27 06:44:07;;;;;;;1.38;0.20;;;21.20;31.00;;;;;;5030834;28;20057;-45
2020/12/27 06:46:46;;;;;;;0.20;0.20;;;21.20;31.10;;;;;;5010667;28;20062;-44
2020/12/27 06:49:23;;;;;;;0.60;0.20;;;21.20;31.10;;;;;;5005125;28;20033;-48
2020/12/27 06:52:19;;;;;;;0.40;0.20;;;21.20;31.10;;;;;;5015886;28;20045;-45
2020/12/27 06:55:08;;;;;;;0.52;0.30;;;21.10;31.10;;;;;;4974527;28;20477;-45
2020/12/27 06:58:13;;;;;;;0.55;0.10;;;21.10;31.10;;;;;;5002026;28;20120;-46
2020/12/27 07:00:39;;;;;;;0.10;0.10;;;21.10;31.10;;;;;;5000307;28;20022;-47
2020/12/27 07:03:22;;;;;;;0.25;0.13;;;21.10;31.20;;;;;;5003838;28;20149;-46
2020/12/27 07:05:50;;;;;;;0.65;0.20;;;21.10;31.20;;;;;;5020266;28;20412;-45
2020/12/27 07:08:44;;;;;;;0.10;0.10;;;21.10;31.20;;;;;;5020210;28;20040;-50
2020/12/27 07:11:10;;;;;;;0.10;0.10;;;21.10;31.30;;;;;;5023585;28;20333;-48
2020/12/27 07:13:46;;;;;;;0.30;0.15;;;21.00;31.30;;;;;;5024797;28;20040;-50
2020/12/27 07:16:16;;;;;;;0.30;0.20;;;21.10;31.30;;;;;;5027870;28;20044;-46
2020/12/27 07:18:49;;;;;;;0.47;0.10;;;21.10;31.40;;;;;;5014683;28;20042;-48
2020/12/27 07:21:19;;;;;;;0.20;0.10;;;21.10;31.40;;;;;;5007939;28;20033;-48
2020/12/27 07:24:08;;;;;;;0.93;0.20;;;21.10;31.40;;;;;;5004345;28;20117;-47
2020/12/27 07:26:37;;;;;;;0.35;0.10;;;21.00;31.40;;;;;;4992324;28;20099;-47
2020/12/27 07:29:07;;;;;;;0.10;0.10;;;21.00;31.40;;;;;;5001890;28;20026;-47
2020/12/27 07:31:34;;;;;;;0.08;0.08;;;21.00;31.40;;;;;;5000099;28;20026;-45
2020/12/27 07:34:00;;;;;;;0.10;0.10;;;21.00;31.50;;;;;;4991547;28;20030;-46
2020/12/27 07:36:27;;;;;;;0.30;0.20;;;21.00;31.50;;;;;;5006234;28;20441;-47
2020/12/27 07:39:05;;;;;;;0.10;0.10;;;21.00;31.60;;;;;;5004242;28;20049;-52
2020/12/27 07:41:40;;;;;;;0.15;0.10;;;21.00;31.60;;;;;;5001829;28;20030;-48
2020/12/27 07:44:14;;;;;;;0.10;0.00;;;21.00;31.60;;;;;;5005090;28;20116;-45
2020/12/27 07:46:40;;;;;;;0.13;0.10;;;21.00;31.60;;;;;;5006555;28;20345;-48
2020/12/27 07:49:13;;;;;;;0.10;0.10;;;21.00;31.70;;;;;;4998800;28;20030;-45
2020/12/27 07:51:40;;;;;;;0.38;0.15;;;21.00;31.70;;;;;;5005066;28;20517;-47
2020/12/27 07:54:07;;;;;;;0.20;0.20;;;21.00;31.70;;;;;;5002200;28;21591;-49
2020/12/27 07:56:34;;;;;;;0.25;0.13;;;21.00;31.70;;;;;;4997743;28;20034;-46
2020/12/27 07:59:04;;;;;;;0.20;0.10;;;21.00;31.70;;;;;;4985302;28;20361;-47
2020/12/27 08:01:32;;;;;;;0.30;0.10;;;21.00;31.70;;;;;;5007004;28;20026;-45
2020/12/27 08:04:07;;;;;;;1.65;0.10;;;21.00;31.70;;;;;;5005389;28;20033;-48
2020/12/27 08:06:36;;;;;;;0.25;0.10;;;21.00;31.80;;;;;;5001491;28;20717;-46
2020/12/27 08:09:11;;;;;;;1.48;0.20;;;21.00;32.30;;;;;;5004682;28;20073;-46
2020/12/27 08:11:38;;;;;;;11.20;0.30;;;21.00;32.40;;;;;;5008934;28;20053;-49
2020/12/27 08:14:08;;;;;;;1.55;0.10;;;21.10;32.50;;;;;;5004078;28;20026;-48
2020/12/27 08:16:39;;;;;;;0.40;0.20;;;21.10;32.40;;;;;;5010146;28;20101;-48
2020/12/27 08:19:09;;;;;;;0.20;0.10;;;21.20;32.20;;;;;;5020958;28;20049;-50
2020/12/27 08:21:37;;;;;;;0.13;0.13;;;21.30;32.20;;;;;;5023055;28;20035;-50
2020/12/27 08:24:05;;;;;;;0.10;0.10;;;21.40;32.10;;;;;;5035871;28;20397;-46
2020/12/27 08:26:40;;;;;;;0.10;0.10;;;21.40;32.00;;;;;;5018279;28;20038;-50
2020/12/27 08:29:13;;;;;;;0.10;0.10;;;21.60;32.00;;;;;;5032840;28;20060;-47
2020/12/27 08:31:46;;;;;;;2.00;0.10;;;21.70;32.00;;;;;;5035483;28;20032;-46
2020/12/27 08:34:17;;;;;;;0.10;0.10;;;21.70;31.90;;;;;;5019199;28;20413;-56
2020/12/27 08:36:48;;;;;;;1.00;0.03;;;21.90;31.90;;;;;;5036594;28;20163;-48
2020/12/27 08:39:17;;;;;;;0.40;0.03;;;22.00;31.90;;;;;;5023720;28;20079;-49
2020/12/27 08:41:51;;;;;;;0.80;0.10;;;22.10;31.90;;;;;;5036953;28;20030;-50
2020/12/27 08:44:45;;;;;;;0.60;0.20;;;22.20;31.80;;;;;;5035188;28;20044;-50
2020/12/27 08:47:32;;;;;;;2.07;0.10;;;22.30;31.80;;;;;;5026926;28;20076;-49
2020/12/27 08:49:58;;;;;;;1.65;0.10;;;22.40;31.70;;;;;;5018981;28;20160;-49
2020/12/27 08:52:24;;;;;;;0.40;0.10;;;22.40;31.60;;;;;;5017820;28;20109;-52
2020/12/27 08:54:58;;;;;;;0.10;0.10;;;22.50;31.50;;;;;;5019527;28;20026;-51
2020/12/27 08:57:24;;;;;;;0.47;0.17;;;22.60;31.50;;;;;;5033956;28;20041;-55
2020/12/27 09:00:00;;;;;;;0.35;0.20;;;22.70;31.40;;;;;;5022825;28;20029;-53
2020/12/27 09:02:26;;;;;;;0.65;0.20;;;22.80;31.30;;;;;;5029601;28;20041;-52
2020/12/27 09:05:13;;;;;;;0.20;0.10;;;22.90;31.30;;;;;;5031877;28;20021;-53
2020/12/27 09:07:44;;;;;;;0.45;0.10;;;23.00;31.20;;;;;;5030806;28;20179;-49
2020/12/27 09:10:30;;;;;;;0.77;0.13;;;23.00;31.10;;;;;;5024947;28;20037;-49
2020/12/27 09:13:05;;;;;;;0.70;0.10;;;23.10;31.00;;;;;;5025509;28;20402;-54
2020/12/27 09:15:42;;;;;;;0.22;0.20;;;23.20;31.60;;;;;;5025681;28;20025;-49
2020/12/27 09:18:10;;;;;;;0.10;0.10;;;23.30;30.90;;;;;;5023219;28;20129;-47
2020/12/27 09:20:45;;;;;;;0.73;0.20;;;23.30;30.80;;;;;;5000933;28;21396;-50
2020/12/27 09:23:20;;;;;;;0.47;0.20;;;23.40;30.80;;;;;;4990846;28;20042;-52
2020/12/27 09:26:13;;;;;;;0.63;0.20;;;23.50;30.80;;;;;;5003826;28;20040;-54
2020/12/27 09:28:40;;;;;;;0.77;0.20;;;23.60;30.70;;;;;;5007980;28;20378;-51
2020/12/27 09:31:11;;;;;;;2.72;0.10;;;23.60;30.60;;;;;;5005862;28;20349;-53
2020/12/27 09:33:45;;;;;;;0.35;0.32;;;23.70;30.60;;;;;;4996136;28;20030;-51
2020/12/27 09:36:11;;;;;;;0.10;0.10;;;23.70;30.40;;;;;;5002068;28;20030;-51
2020/12/27 09:38:44;;;;;;;0.10;0.10;;;23.80;30.40;;;;;;5005478;28;20088;-48
2020/12/27 09:41:12;;;;;;;0.28;0.13;;;23.80;30.30;;;;;;5010708;28;20037;-54
2020/12/27 09:43:55;;;;;;;0.20;0.13;;;23.90;30.20;;;;;;5001239;28;20034;-57
2020/12/27 09:46:55;;;;;;;0.20;0.10;;;24.00;30.20;;;;;;4998387;28;20041;-53
2020/12/27 09:49:21;;;;;;;0.75;0.30;;;24.20;30.00;;;;;;5001052;28;20476;-57
2020/12/27 09:52:00;;;;;;;0.20;0.10;;;24.30;29.90;;;;;;5011933;28;20026;-56
2020/12/27 09:54:26;;;;;;;1.00;0.10;;;24.50;30.20;;;;;;4998917;28;20038;-57
2020/12/27 09:56:52;;;;;;;0.45;0.20;;;24.70;29.60;;;;;;5002231;28;20034;-55
2020/12/27 09:59:17;;;;;;;0.20;0.13;;;24.80;29.50;;;;;;4980182;28;20088;-59
2020/12/27 10:01:43;;;;;;;0.10;0.10;;;24.90;29.40;;;;;;5005426;28;20044;-59
2020/12/27 10:04:09;;;;;;;0.13;0.10;;;25.00;29.20;;;;;;5009779;28;20029;-54
2020/12/27 10:06:34;;;;;;;0.60;0.17;;;25.10;29.10;;;;;;5009036;28;20027;-51
2020/12/27 10:09:00;;;;;;;0.20;0.10;;;25.20;29.10;;;;;;4988574;28;20128;-58
2020/12/27 10:11:26;;;;;;;0.25;0.10;;;25.30;29.00;;;;;;5013382;28;20041;-57
2020/12/27 10:13:52;;;;;;;1.10;0.10;;;25.40;28.90;;;;;;5005932;28;20125;-56
2020/12/27 10:16:19;;;;;;;0.20;0.20;;;25.50;28.80;;;;;;5009685;28;20327;-52
2020/12/27 10:18:45;;;;;;;0.10;0.10;;;25.60;28.70;;;;;;5006246;28;20042;-50
2020/12/27 10:21:10;;;;;;;0.22;0.20;;;25.60;28.60;;;;;;5008275;28;20444;-52
2020/12/27 10:23:36;;;;;;;0.75;0.10;;;25.70;28.60;;;;;;5006284;28;20042;-59
2020/12/27 10:26:05;;;;;;;0.10;0.10;;;25.80;28.50;;;;;;5004270;28;20034;-59
2020/12/27 10:28:32;;;;;;;0.40;0.20;;;25.80;28.40;;;;;;5000614;28;20038;-54
2020/12/27 10:30:58;;;;;;;0.73;0.22;;;25.90;28.30;;;;;;5001552;28;20033;-57
2020/12/27 10:33:24;;;;;;;0.52;0.20;;;25.90;28.20;;;;;;5011519;28;20357;-57
2020/12/27 10:35:50;;;;;;;0.20;0.10;;;25.90;28.20;;;;;;5004776;28;20030;-55
2020/12/27 10:38:16;;;;;;;0.52;0.20;;;26.00;28.10;;;;;;5001617;28;20025;-51
2020/12/27 10:40:41;;;;;;;1.08;0.20;;;26.00;28.10;;;;;;5004437;28;20319;-52
2020/12/27 10:43:07;;;;;;;0.28;0.10;;;26.00;28.00;;;;;;5011412;28;20861;-52
2020/12/27 10:45:33;;;;;;;0.15;0.10;;;26.00;28.00;;;;;;5001861;28;20031;-52
2020/12/27 10:47:58;;;;;;;0.30;0.10;;;26.00;28.00;;;;;;5005225;28;20686;-48
2020/12/27 10:50:24;;;;;;;0.10;0.10;;;26.00;27.90;;;;;;5009060;28;20044;-47
2020/12/27 10:52:50;;;;;;;0.32;0.30;;;26.00;27.90;;;;;;5008333;28;20109;-46
2020/12/27 10:55:16;;;;;;;1.88;0.93;;;26.10;28.10;;;;;;5010521;28;20356;-50
2020/12/27 10:57:41;;;;;;;1.80;1.08;;;26.10;28.30;;;;;;4996328;28;20367;-43
2020/12/27 11:00:07;;;;;;;4.53;1.40;;;26.10;28.50;;;;;;5001516;28;20098;-48
2020/12/27 11:02:33;;;;;;;3.03;1.77;;;26.10;28.70;;;;;;5004407;28;20049;-46
2020/12/27 11:04:59;;;;;;;3.55;1.77;;;26.10;28.80;;;;;;4998253;28;20050;-48
2020/12/27 11:07:24;;;;;;;2.30;1.50;;;26.10;29.10;;;;;;5011925;28;20026;-46
2020/12/27 11:09:50;;;;;;;3.15;1.65;;;26.20;29.30;;;;;;5005091;28;20478;-50
2020/12/27 11:12:18;;;;;;;2.40;1.35;;;26.20;29.30;;;;;;5015417;28;20040;-54
2020/12/27 11:14:45;;;;;;;3.97;1.45;;;26.20;29.30;;;;;;5007063;28;20036;-49
2020/12/27 11:17:11;;;;;;;2.70;1.50;;;26.20;29.40;;;;;;4978193;28;20108;-47
2020/12/27 11:19:37;;;;;;;5.70;1.83;;;26.20;29.40;;;;;;4995560;28;20454;-50
2020/12/27 11:22:02;;;;;;;2.50;1.30;;;26.20;29.50;;;;;;4999341;28;20386;-53
2020/12/27 11:24:28;;;;;;;2.92;1.58;;;26.20;29.40;;;;;;5004430;28;20034;-51
2020/12/27 11:26:54;;;;;;;3.40;1.77;;;26.20;29.40;;;;;;5005867;28;20038;-51
2020/12/27 11:29:20;;;;;;;4.82;1.92;;;26.30;29.60;;;;;;5014733;28;20117;-52
2020/12/27 11:31:46;;;;;;;7.80;2.75;;;26.30;29.80;;;;;;4998962;28;20501;-46
2020/12/27 11:34:12;;;;;;;3.75;2.20;;;26.30;30.00;;;;;;5015018;28;20113;-52
2020/12/27 11:36:38;;;;;;;3.47;1.90;;;26.30;30.20;;;;;;4998944;28;20034;-55
2020/12/27 11:39:04;;;;;;;4.38;2.33;;;26.30;30.30;;;;;;4993205;28;20111;-50
2020/12/27 11:41:29;;;;;;;3.90;2.22;;;26.30;30.20;;;;;;5009795;28;20076;-49
2020/12/27 11:43:55;;;;;;;3.95;2.30;;;26.20;30.20;;;;;;5004776;28;20050;-47
2020/12/27 11:46:26;;;;;;;2.88;2.00;;;26.20;30.20;;;;;;5000080;28;20033;-46
2020/12/27 11:48:52;;;;;;;3.15;1.85;;;26.10;30.00;;;;;;5000511;28;20113;-48
2020/12/27 11:51:17;;;;;;;2.70;1.73;;;26.10;30.00;;;;;;4996475;28;20552;-51
2020/12/27 11:53:43;;;;;;;3.40;1.60;;;26.10;30.00;;;;;;5009279;28;20045;-52
2020/12/27 11:56:15;;;;;;;2.30;1.50;;;26.10;30.00;;;;;;5000453;28;20331;-53
2020/12/27 11:58:41;;;;;;;3.20;1.75;;;26.00;29.90;;;;;;5006437;28;20037;-50
2020/12/27 12:01:11;;;;;;;3.30;1.35;;;26.00;29.80;;;;;;5004512;28;20034;-52
2020/12/27 12:03:38;;;;;;;3.10;1.60;;;26.00;29.70;;;;;;4997490;28;20050;-46
2020/12/27 12:06:04;;;;;;;2.60;1.50;;;26.00;29.90;;;;;;4997464;28;20034;-50
2020/12/27 12:08:29;;;;;;;2.65;1.40;;;26.00;29.60;;;;;;5006039;28;20038;-45
2020/12/27 12:10:55;;;;;;;3.13;1.02;;;26.00;29.60;;;;;;5003208;28;20030;-50
2020/12/27 12:13:21;;;;;;;4.07;1.30;;;26.10;29.50;;;;;;5007817;28;20062;-50
2020/12/27 12:15:47;;;;;;;2.47;1.10;;;26.10;29.50;;;;;;4980970;28;20030;-52
2020/12/27 12:18:13;;;;;;;2.15;1.40;;;26.10;29.40;;;;;;5005735;28;20412;-49
2020/12/27 12:20:42;;;;;;;2.72;1.30;;;26.10;29.40;;;;;;5010841;28;20034;-48
2020/12/27 12:23:08;;;;;;;2.75;1.23;;;26.10;29.30;;;;;;4999575;28;20049;-54
2020/12/27 12:25:35;;;;;;;2.58;1.25;;;26.20;29.30;;;;;;5002479;28;20349;-49
2020/12/27 12:28:01;;;;;;;1.38;0.70;;;26.20;29.20;;;;;;5005576;28;20037;-45
2020/12/27 12:30:26;;;;;;;1.98;0.80;;;26.20;29.20;;;;;;5001202;28;20053;-48
2020/12/27 12:32:52;;;;;;;1.88;1.00;;;26.20;29.20;;;;;;4999205;28;20042;-49
2020/12/27 12:35:18;;;;;;;2.63;0.70;;;26.20;29.10;;;;;;5002676;28;20076;-49
2020/12/27 12:37:44;;;;;;;5.18;0.85;;;26.30;29.10;;;;;;5005492;28;20479;-49
2020/12/27 12:40:10;;;;;;;2.45;0.95;;;26.30;29.10;;;;;;5006589;28;20026;-46
2020/12/27 12:42:36;;;;;;;0.98;0.70;;;26.30;29.00;;;;;;5000592;28;20030;-49
2020/12/27 12:45:04;;;;;;;1.63;0.80;;;26.40;29.00;;;;;;5002844;28;20397;-49
2020/12/27 12:47:30;;;;;;;1.67;0.70;;;26.40;28.90;;;;;;5003517;28;20121;-48
2020/12/27 12:49:56;;;;;;;1.02;0.55;;;26.40;28.90;;;;;;5009986;28;20406;-47
2020/12/27 12:52:22;;;;;;;1.83;0.90;;;26.50;28.90;;;;;;5008325;28;20069;-47
2020/12/27 12:54:48;;;;;;;1.08;0.60;;;26.50;28.80;;;;;;4995014;28;20062;-47
2020/12/27 12:57:14;;;;;;;1.73;0.70;;;26.50;28.70;;;;;;5000396;28;20038;-54
2020/12/27 12:59:40;;;;;;;1.00;0.60;;;26.60;28.80;;;;;;5005975;28;20022;-48
2020/12/27 13:02:06;;;;;;;0.63;0.55;;;26.60;28.70;;;;;;5008736;28;20721;-51
2020/12/27 13:04:32;;;;;;;1.58;0.60;;;26.60;28.60;;;;;;4998463;28;20446;-49
2020/12/27 13:07:01;;;;;;;1.02;0.65;;;26.70;28.60;;;;;;5009322;28;20112;-52
2020/12/27 13:09:26;;;;;;;0.95;0.70;;;26.70;28.60;;;;;;5012631;28;20126;-49
2020/12/27 13:11:52;;;;;;;1.35;0.50;;;26.80;28.60;;;;;;5017333;28;20034;-54